Penang International Airport
WMKP : now visible

Airfield :











YOU CAN JOIN US ON...

 
LOGIN :

Register | Disclaimer

   EN    FR    IT 

 









Legend :    VFR   Marginal VFR   IFR   Intensive IFR   Very Intensive IFR
Visi :
Ceiling :
>= 8 km
>= 3000ft
5 to 8 km
1000 to 3000 ft
1500m to 5 km
500 to 1000 ft
800 to 1500m
200 to 500 ft
< 800m
< 200 ft
Symbols :   Thunderstorms  Fog  Heavy snow  Heavy precipitations  Wind > 20 kt






- Airport Elevation : 11 ft
- IATA code : PEN


WMKP - Penang International

CURRENT METAR :
  • 310630Z 22015KT 9000 FEW020 30/26 Q1011 NOSIG

EXPIRED METARs :
  • 310600Z 22015KT 9000 FEW017CB 31/25 Q1011 NOSIG
  • 310530Z 23012KT 190V250 9000 FEW017CB 31/26 Q1012 NOSIG
  • 310500Z 22010KT 200V260 9000 FEW017CB 31/26 Q1012 NOSIG
  • 310430Z 22011KT 190V250 9000 FEW017CB 31/26 Q1012 NOSIG
  • 310400Z 21010KT 190V250 9000 FEW020 31/27 Q1013 NOSIG

TAF AMD TAF WMKP
Valid from the 31 at 06:00 until the 01 at 06:00 UTC


310647Z 3106/0106 23012KT 9000 FEW017CB
TEMPO 3107/3112 5000 TSRA FEW010 FEW017CB
BECMG 3110/3112 VRB03KT FEW025
WMFC FIR / Asia



MET'MAP, your aeronautical weather chart ! - Copyright ORBIFLY December 2007 - Disclaimer

ORBIFLY MET'MAP TEAM :

Programming & Development : Alexandra Zaïnal
Concept & original design : Baudouin d'Aumeries
Assistance for programming : Marc-Olivier Méhu
Technical & hardware support : Manuel Goepfert

Contact : metmap@orbifly.com




SOURCES & CREDITS :

   NOAA       Earth
Advisory